Terminal Aerodrome Forecast
Issued by NWS Nashville, TN

Home | Current Version | Previous Version | Text Only | Print | Product List | Glossary On
Versions: 1 2 3 4 5 6 7 8 9 10 11 12 13 14 15 16 17 18 19 20 21 22 23 24
000
FTUS44 KOHX 242320
TAFCSV
TAF
KCSV 242320Z 2500/2524 29007KT 6SM -SHRA BR SCT008 OVC012
     FM250300 30006KT 5SM BR VCSH BKN007 OVC012
     FM250800 31005KT 4SM -DZ BR OVC004
     FM251500 33008KT P6SM BKN007 OVC015=

USA.gov is the U.S. government's official web portal to all federal, state and local government web resources and services.